首页
METAR-TAF:

METAR-TAF

机场 :

可可比奇, 佛罗里达州, 美国

纬度: 28-14N, 经度: 080-36W, 海拔: 3米

当前天气观测

该预报发布于1小时和5分钟前的19:56 UTC
风速9节,风向东转东北
温度 29°C
湿度 62%
气压 1015 hPa
能見度: 16.1公里
天空无云

METAR: KCOF 231956Z AUTO 07009KT 10SM CLR 29/21 A2998 RMK AO2 SLP157 T02880210 $

时间: 17:01 (21:01 UTC)

预报

该预报发布于35小时和1分钟前的10:00 UTC
预报有效从22日的 10点(UTC)到 23日的 16点(UTC)
风速12节,风向东转东北
能见度10公里或以上
少量云层高于2000英尺
成为
从 22日的 14点(UTC)到 22日的 15点(UTC)
风速15节,风向东转东北,有时为20节阵风
能见度10公里或以上
散云层高于3500英尺
成为
从 23日的 00点(UTC)到 23日的 01点(UTC)
风速10节,风向东转东北
能见度10公里或以上
散云层高于2000英尺
成为
从 23日的 14点(UTC)到 23日的 15点(UTC)
风速10节,风向东北,有时为15节阵风
能见度10公里或以上
少量云层高于3500英尺

TAF: KCOF 221000Z 2210/2316 07012KT 9999 FEW020 QNH3006INS BECMG 2214/2215 07015G20KT 9999 SCT035 QNH3004INS BECMG 2300/2301 06010KT 9999 SCT020 QNH3000INS BECMG 2314/2315 05010G15KT 9999 FEW035 QNH2999INS TX28/2218Z TN26/2210Z

超过4000个机场的气象观测和天气预报(METAR&TAF报告)。

可查询的气象台以黄色和红色小点在地图上表示。

将鼠标移到小点上方,可查看气象台名称。

然后点击查看天气观测和预报。

如需切换地图:点击带黑十字的绿色按钮放大地图;点击带横线的绿色按钮缩小地图;或者点击绿色箭头查看邻近地区的地图。


METAR-TAF: